Terminal Aerodrome Forecast
Issued by NWS

Home | Current Version | Previous Version | Text Only | Print | Product List | Glossary On
Versions: 1 2 3 4 5 6 7 8 9 10 11 12 13 14 15 16 17 18 19 20 21 22 23 24 25 26 27 28
000
FTUS43 KAPX 312335
TAFMBL
TAF
KMBL 312335Z 0100/0124 20005KT P6SM SKC
     FM010500 00000KT 2SM BR SKC
     FM010700 00000KT 1/4SM FG OVC001
     FM011300 20004KT 5SM BR SCT004
     FM011400 20011KT P6SM SKC
      AMD LTD TO CLD VIS AND WIND=

USA.gov is the U.S. government's official web portal to all federal, state and local government web resources and services.